Flight Track Log - Related Links

Times and Time Zones

All times are in EDT time to prevent confusion due to time zone crossing. See the JBU1251 flight status page for this flight to view local times or setup timezone preferences in your user account.

Time Position Orientation Groundspeed Altitude Reporting Facility
EDT Latitude Longitude Course Direction KTS MPH feet Rate Location/Type
Sat 06:46:54 PM 42.3667 -70.9833 278° West 145 167 1,000  Level KA90
Sat 06:48:01 PM 42.3667 -70.9000 90° East 186 214 3,500 2,425 Climbing KA90
Sat 06:49:00 PM 42.3612 -70.7289 172° South  Level FlightAware Approximate
Sat 06:49:20 PM 42.3908 -70.8097 70° East 242 278 6,900  Level Boston Center
Sat 06:50:00 PM 42.2714 -70.7596 228° Southwest  Level FlightAware Approximate
Sat 06:50:20 PM 42.3500 -70.7292 124° Southeast 242 278 10,400  Level Boston Center
Sat 06:51:00 PM 42.2094 -70.8725 240° Southwest  Level FlightAware Approximate
Sat 06:51:20 PM 42.2586 -70.7514 190° South 217 250 12,300  Level Boston Center
Sat 06:52:00 PM 42.1871 -71.0039 278° West  Level FlightAware Approximate
Sat 06:52:20 PM 42.2083 -70.8789 242° Southwest 247 284 15,600  Level Boston Center
Sat 06:53:20 PM 42.2081 -71.0275 270° West 324 373 18,000 2,150 Climbing Boston Center
Sat 06:54:20 PM 42.2078 -71.1619 270° West 365 420 19,900 2,100 Climbing Boston Center
Sat 06:55:20 PM 42.2050 -71.3106 269° West 386 444 22,200 2,150 Climbing Boston Center
Sat 06:56:20 PM 42.2003 -71.4647 268° West 407 468 24,200 1,750 Climbing Boston Center
Sat 06:57:20 PM 42.1953 -71.6189 268° West 419 482 25,700 900 Climbing Boston Center
Sat 06:58:20 PM 42.1900 -71.7900 268° West 434 499 26,000 150 Climbing Boston Center
Sat 06:59:20 PM 42.1847 -71.9608 268° West 453 521 26,000  Level Boston Center
Sat 07:00:20 PM 42.1811 -72.1347 268° West 464 534 26,000 500 Level Boston Center
Sat 07:01:20 PM 42.1544 -72.3058 258° West 469 540 27,000 1,000 Climbing Boston Center
Sat 07:02:20 PM 42.0856 -72.4681 240° Southwest 475 547 28,000 500 Climbing Boston Center
Sat 07:03:20 PM 42.0147 -72.6442 242° Southwest 486 559 28,000  Level Boston Center
Sat 07:04:20 PM 41.9456 -72.8058 240° Southwest 486 559 28,000  Level Boston Center
Sat 07:05:20 PM 41.8781 -72.9642 240° Southwest 498 573 28,000  Level Boston Center
Sat 07:06:20 PM 41.8064 -73.1308 240° Southwest 509 586 28,000  Level Boston Center
Sat 07:07:20 PM 41.7386 -73.2886 240° Southwest 504 580 28,000  Level Boston Center
Sat 07:09:07 PM 41.6200 -73.5628 240° Southwest 509 586 28,000  Level New York Center
Sat 07:10:07 PM 41.5539 -73.7181 240° Southwest 498 573 28,000  Level New York Center
Sat 07:11:05 PM 41.4811 -73.8697 237° Southwest 493 567 28,000  Level New York Center
Sat 07:12:05 PM 41.4086 -74.0186 237° Southwest 493 567 28,000  Level New York Center
Sat 07:13:06 PM 41.3336 -74.1669 236° Southwest 488 562 28,000  Level New York Center
Sat 07:14:07 PM 41.2589 -74.2956 232° Southwest 494 568 28,000  Level New York Center
Sat 07:15:07 PM 41.1794 -74.4403 234° Southwest 500 575 28,000  Level New York Center
Sat 07:16:05 PM 41.0981 -74.5844 233° Southwest 494 568 28,000  Level New York Center
Sat 07:17:06 PM 41.0183 -74.7283 234° Southwest 494 568 28,000  Level New York Center
Sat 07:18:06 PM 40.9361 -74.8719 233° Southwest 494 568 28,000  Level New York Center
Sat 07:19:07 PM 40.8561 -75.0153 234° Southwest 488 562 28,000  Level New York Center
Sat 07:20:07 PM 40.7778 -75.1611 235° Southwest 488 562 28,000  Level New York Center
Sat 07:21:07 PM 40.6975 -75.3011 233° Southwest 488 562 28,000 -966 Level New York Center
Sat 07:22:05 PM 40.6150 -75.4406 232° Southwest 493 567 26,100 -1,966 Descending New York Center
Sat 07:23:06 PM 40.5386 -75.5772 234° Southwest 483 556 24,100 -1,983 Descending New York Center
Sat 07:24:06 PM 40.4625 -75.7083 233° Southwest 477 549 22,100 -1,983 Descending New York Center
Sat 07:25:07 PM 40.3861 -75.8392 233° Southwest 465 535 20,100 -1,059 Descending New York Center
Sat 07:26:05 PM 40.3008 -75.9800 232° Southwest 465 535 20,000 -51 Descending New York Center
Sat 07:27:05 PM 40.2283 -76.1106 234° Southwest 459 528 20,000  Level New York Center
Sat 07:28:06 PM 40.1625 -76.2222 232° Southwest 459 528 20,000 -492 Level New York Center
Sat 07:29:07 PM 40.0919 -76.3525 235° Southwest 450 518 19,000 -1,050 Descending New York Center
Sat 07:30:06 PM 40.0244 -76.4989 239° Southwest 434 499 17,900 -968 Descending New York Center
Sat 07:32:13 PM 39.9000 -76.7667 239° Southwest 407 468 16,000 -1,089 Descending Potomac TRACON
Sat 07:34:14 PM 39.7833 -77.0000 237° Southwest 391 450 13,400 -1,359 Descending Potomac TRACON
Sat 07:35:14 PM 39.7333 -77.1167 241° Southwest 380 437 11,900 -1,500 Descending Potomac TRACON
Sat 07:36:14 PM 39.6833 -77.2333 241° Southwest 370 426 10,400 -950 Descending Potomac TRACON
Sat 07:37:14 PM 39.6000 -77.3167 218° Southwest 356 410 10,000 -700 Descending Potomac TRACON
Sat 07:39:14 PM 39.4500 -77.4000 203° Southwest 287 330 8,300 -895 Descending Potomac TRACON
Sat 07:40:15 PM 39.3667 -77.4500 205° Southwest 258 297 7,300 -1,041 Descending Potomac TRACON
Sat 07:41:15 PM 39.3167 -77.4500 180° South 219 252 6,200 -1,150 Descending Potomac TRACON
Sat 07:42:15 PM 39.2500 -77.4500 180° South 191 220 5,000 -1,091 Descending Potomac TRACON
Sat 07:43:16 PM 39.2000 -77.4500 180° South 187 215 4,000 -595 Descending Potomac TRACON
Sat 07:44:16 PM 39.1500 -77.4500 180° South 184 212 3,800 -600 Descending Potomac TRACON
Sat 07:45:16 PM 39.1000 -77.4500 180° South 185 213 2,800 -942 Descending Potomac TRACON
Sat 07:46:17 PM 39.0500 -77.4500 180° South 170 196 1,900 -893 Descending Potomac TRACON
Sat 07:47:17 PM 39.0167 -77.4667 201° Southwest 136 157 1,000 -900 Descending Potomac TRACON

Login

Don't have an account? Register now (free) for customized features, flight alerts, and more!